ADDS METAR Data INFO
IDs: Format: Raw Decoded Include TAF

Data at: 1527 UTC 18 Jun 2018

KIOB 181515Z AUTO 28004KT 10SM CLR 30/23 A3017 RMK AO2
KIOB 181455Z AUTO 28004KT 10SM CLR 29/23 A3016 RMK AO2
KIOB 181435Z AUTO 26005KT 10SM CLR 29/23 A3016 RMK AO2
KIOB 181415Z AUTO 00000KT 10SM CLR 28/22 A3016 RMK AO2
KIOB 181355Z AUTO 27005KT 10SM CLR 27/22 A3017 RMK AO2
KIOB 181335Z AUTO 24007KT 10SM CLR 27/22 A3016 RMK AO2
KIOB 181315Z AUTO 25007KT 10SM CLR 26/22 A3017 RMK AO2
KIOB 181255Z AUTO 24004KT 10SM CLR 26/22 A3016 RMK AO2
KIOB 181235Z AUTO 24004KT 10SM CLR 25/22 A3016 RMK AO2
KIOB 181215Z AUTO 23004KT 10SM CLR 24/21 A3016 RMK AO2
KIOB 181155Z AUTO 23005KT 10SM CLR 23/21 A3015 RMK AO2
KIOB 181135Z AUTO 22004KT 10SM CLR 23/21 A3015 RMK AO2
KIOB 181115Z AUTO 23005KT 10SM CLR 22/21 A3015 RMK AO2
KIOB 181055Z AUTO 22004KT 10SM CLR 22/20 A3014 RMK AO2
KIOB 181035Z AUTO 21004KT 10SM CLR 22/20 A3014 RMK AO2
KIOB 181015Z AUTO 22004KT 10SM CLR 21/20 A3014 RMK AO2
KIOB 180955Z AUTO 21004KT 10SM CLR 21/20 A3014 RMK AO2
KIOB 180935Z AUTO 21006KT 10SM CLR 22/20 A3013 RMK AO2
KIOB 180915Z AUTO 21004KT 10SM CLR 22/21 A3013 RMK AO2
KIOB 180855Z AUTO 21003KT 10SM CLR 22/21 A3013 RMK AO2
KIOB 180835Z AUTO 21004KT 10SM CLR 22/21 A3013 RMK AO2
KIOB 180815Z AUTO 21005KT 10SM CLR 22/21 A3013 RMK AO2
KIOB 180735Z AUTO 20003KT 10SM CLR 21/20 A3013 RMK AO2
KIOB 180715Z AUTO 20003KT 10SM CLR 21/20 A3013 RMK AO2
KIOB 180655Z AUTO 20004KT 10SM CLR 22/21 A3013 RMK AO2
KIOB 180635Z AUTO 21005KT 10SM CLR 21/20 A3014 RMK AO2
KIOB 180615Z AUTO 21004KT 10SM CLR 21/20 A3014 RMK AO2
KIOB 180555Z AUTO 00000KT 10SM CLR 21/20 A3014 RMK AO2
KIOB 180535Z AUTO 00000KT 10SM CLR 22/21 A3014 RMK AO2
KIOB 180455Z AUTO 21003KT 10SM CLR 22/21 A3014 RMK AO2
KIOB 180435Z AUTO 20003KT 10SM CLR 22/21 A3013 RMK AO2
KIOB 180415Z AUTO 20003KT 10SM CLR 22/22 A3013 RMK AO2
KIOB 180355Z AUTO 21004KT 10SM CLR 23/22 A3012 RMK AO2
KIOB 180335Z AUTO 21004KT 10SM CLR 23/22 A3012 RMK AO2
KIOB 180315Z AUTO 22003KT 10SM CLR 23/22 A3013 RMK AO2
KIOB 180255Z AUTO 00000KT 10SM CLR 25/22 A3013 RMK AO2
KIOB 180235Z AUTO 00000KT 10SM CLR 25/23 A3013 RMK AO2
KIOB 180215Z AUTO 00000KT 10SM CLR 24/23 A3012 RMK AO2
KIOB 180155Z AUTO 00000KT 10SM CLR 25/23 A3011 RMK AO2
KIOB 180135Z AUTO 21003KT 10SM CLR 25/23 A3010 RMK AO2
KIOB 180115Z AUTO 00000KT 10SM CLR 26/23 A3010 RMK AO2
KIOB 180055Z AUTO 00000KT 10SM CLR 27/22 A3010 RMK AO2
KIOB 180035Z AUTO 00000KT 10SM CLR 30/22 A3010 RMK AO2
KIOB 180015Z AUTO 19003KT 10SM CLR 30/22 A3010 RMK AO2
KIOB 172355Z AUTO 00000KT 10SM CLR 31/22 A3010 RMK AO2
KIOB 172335Z AUTO 22003KT 10SM CLR 31/22 A3010 RMK AO2
KIOB 172315Z AUTO 00000KT 10SM CLR 32/20 A3010 RMK AO2
KIOB 172255Z AUTO 18004KT 10SM CLR 32/20 A3010 RMK AO2
KIOB 172235Z AUTO 19004KT 10SM CLR 32/20 A3011 RMK AO2
KIOB 172215Z AUTO 00000KT 10SM CLR 33/20 A3012 RMK AO2
KIOB 172155Z AUTO 00000KT 10SM CLR 33/20 A3012 RMK AO2
KIOB 172135Z AUTO 00000KT 10SM CLR 32/20 A3012 RMK AO2
KIOB 172115Z AUTO 18006KT 10SM CLR 33/21 A3012 RMK AO2
KIOB 172055Z AUTO 07003KT 10SM SCT049 32/20 A3012 RMK AO2
KIOB 172035Z AUTO 09003KT 10SM SCT049 32/21 A3013 RMK AO2
KIOB 172015Z AUTO 09003KT 10SM BKN049 BKN060 32/20 A3014 RMK AO2
KIOB 171955Z AUTO 00000KT 10SM BKN049 BKN060 32/20 A3014 RMK AO2
KIOB 171935Z AUTO 00000KT 10SM BKN049 BKN060 33/20 A3014 RMK AO2
KIOB 171915Z AUTO 19003KT 10SM BKN049 BKN055 32/20 A3014 RMK AO2
KIOB 171855Z AUTO 24003KT 10SM SCT049 SCT065 33/21 A3015 RMK AO2
KIOB 171835Z AUTO 00000KT 10SM SCT047 33/20 A3015 RMK AO2
KIOB 171815Z AUTO 00000KT 10SM SCT045 SCT050 SCT065 32/20 A3015 RMK AO2
KIOB 171755Z AUTO 00000KT 10SM SCT045 SCT050 32/21 A3016 RMK AO2
KIOB 171735Z AUTO 00000KT 10SM SCT044 SCT050 32/21 A3016 RMK AO2
KIOB 171715Z AUTO 04003KT 10SM CLR 32/21 A3017 RMK AO2
KIOB 171655Z AUTO 04003KT 10SM SCT042 SCT048 31/21 A3018 RMK AO2
KIOB 171635Z AUTO 00000KT 10SM SCT042 SCT048 31/21 A3018 RMK AO2
KIOB 171615Z AUTO 34003KT 10SM CLR 31/21 A3018 RMK AO2
KIOB 171555Z AUTO 07003KT 10SM CLR 30/20 A3018 RMK AO2
KIOB 171535Z AUTO 00000KT 10SM CLR 31/21 A3017 RMK AO2
KIOB 171515Z AUTO 00000KT 10SM CLR 30/21 A3017 RMK AO2
KIOB 171455Z AUTO 00000KT 10SM CLR 30/21 A3017 RMK AO2
KIOB 171435Z AUTO 00000KT 10SM CLR 30/21 A3016 RMK AO2
KIOB 171415Z AUTO 00000KT 10SM CLR 29/21 A3016 RMK AO2
KIOB 171355Z AUTO 00000KT 10SM CLR 28/21 A3016 RMK AO2
KIOB 171335Z AUTO 22003KT 10SM CLR 27/21 A3016 RMK AO2
KIOB 171315Z AUTO 00000KT 10SM CLR 27/21 A3015 RMK AO2
KIOB 171255Z AUTO 22003KT 10SM CLR 26/21 A3015 RMK AO2
KIOB 171235Z AUTO 00000KT 10SM CLR 25/20 A3015 RMK AO2
KIOB 171215Z AUTO 00000KT 10SM CLR 24/21 A3016 RMK AO2
KIOB 171155Z AUTO 00000KT 10SM CLR 22/20 A3016 RMK AO2
KIOB 171135Z AUTO 00000KT 10SM CLR 21/20 A3016 RMK AO2
KIOB 171115Z AUTO 22003KT 10SM CLR 19/19 A3015 RMK AO2
KIOB 171055Z AUTO 24003KT 5SM BR CLR 18/18 A3014 RMK AO2
KIOB 171035Z AUTO 00000KT 7SM CLR 18/18 A3013 RMK AO2
KIOB 171015Z AUTO 00000KT 5SM BR CLR 18/18 A3013 RMK AO2
KIOB 170955Z AUTO 00000KT 10SM CLR 19/18 A3013 RMK AO2
KIOB 170935Z AUTO 00000KT 10SM CLR 20/19 A3011 RMK AO2
KIOB 170915Z AUTO 22004KT 10SM CLR 19/18 A3010 RMK AO2
KIOB 170855Z AUTO 22004KT 10SM CLR 18/18 A3008 RMK AO2
KIOB 170835Z AUTO 21004KT 10SM CLR 20/19 A3008 RMK AO2
KIOB 170815Z AUTO 22004KT 10SM CLR 19/19 A3008 RMK AO2
KIOB 170755Z AUTO 22003KT 10SM CLR 20/19 A3008 RMK AO2
KIOB 170735Z AUTO 23003KT 10SM CLR 20/19 A3008 RMK AO2
KIOB 170715Z AUTO 20004KT 10SM CLR 20/19 A3008 RMK AO2
KIOB 170655Z AUTO 20003KT 10SM CLR 20/19 A3009 RMK AO2
KIOB 170635Z AUTO 21003KT 10SM CLR 20/19 A3009 RMK AO2
KIOB 170615Z AUTO 19003KT 10SM CLR 20/20 A3009 RMK AO2
KIOB 170555Z AUTO 19003KT 10SM CLR 20/20 A3010 RMK AO2
KIOB 170535Z AUTO 18003KT 10SM CLR 20/20 A3010 RMK AO2
KIOB 170515Z AUTO 00000KT 10SM CLR 20/20 A3011 RMK AO2
KIOB 170455Z AUTO 00000KT 10SM CLR 21/20 A3011 RMK AO2
KIOB 170435Z AUTO 00000KT 10SM CLR 21/20 A3011 RMK AO2
KIOB 170415Z AUTO 00000KT 10SM CLR 21/20 A3011 RMK AO2
KIOB 170355Z AUTO 00000KT 10SM CLR 21/21 A3011 RMK AO2
KIOB 170335Z AUTO 00000KT 10SM CLR 22/21 A3012 RMK AO2